sensor_id;sensor_type;location;lat;lon;timestamp;temperature;humidity
49218;DHT22;35045;51.194;7.268;2023-03-16T00:00:53;3.70;99.90
49218;DHT22;35045;51.194;7.268;2023-03-16T00:03:19;3.80;99.90
49218;DHT22;35045;51.194;7.268;2023-03-16T00:05:47;3.60;99.90
49218;DHT22;35045;51.194;7.268;2023-03-16T00:08:14;3.60;99.90
49218;DHT22;35045;51.194;7.268;2023-03-16T00:10:40;3.60;99.90
49218;DHT22;35045;51.194;7.268;2023-03-16T00:13:22;3.60;99.90
49218;DHT22;35045;51.194;7.268;2023-03-16T00:15:50;3.50;99.90
49218;DHT22;35045;51.194;7.268;2023-03-16T00:18:17;3.50;99.90
49218;DHT22;35045;51.194;7.268;2023-03-16T00:20:43;3.50;99.90
49218;DHT22;35045;51.194;7.268;2023-03-16T00:23:09;3.40;99.90
49218;DHT22;35045;51.194;7.268;2023-03-16T00:25:35;3.30;99.90
49218;DHT22;35045;51.194;7.268;2023-03-16T00:28:01;3.30;99.90
49218;DHT22;35045;51.194;7.268;2023-03-16T00:30:31;3.30;99.90
49218;DHT22;35045;51.194;7.268;2023-03-16T00:32:58;3.30;99.90
49218;DHT22;35045;51.194;7.268;2023-03-16T00:35:24;3.20;99.90
49218;DHT22;35045;51.194;7.268;2023-03-16T00:37:50;3.20;99.90
49218;DHT22;35045;51.194;7.268;2023-03-16T00:40:16;3.20;99.90
49218;DHT22;35045;51.194;7.268;2023-03-16T00:42:42;3.20;99.90
49218;DHT22;35045;51.194;7.268;2023-03-16T00:45:09;3.20;99.90
49218;DHT22;35045;51.194;7.268;2023-03-16T00:47:35;3.20;99.90
49218;DHT22;35045;51.194;7.268;2023-03-16T00:50:01;3.20;99.90
49218;DHT22;35045;51.194;7.268;2023-03-16T00:52:28;3.20;99.90
49218;DHT22;35045;51.194;7.268;2023-03-16T00:54:55;3.20;99.90
49218;DHT22;35045;51.194;7.268;2023-03-16T00:57:23;3.20;99.90
49218;DHT22;35045;51.194;7.268;2023-03-16T00:59:50;3.30;99.90
49218;DHT22;35045;51.194;7.268;2023-03-16T01:02:17;3.20;99.90
49218;DHT22;35045;51.194;7.268;2023-03-16T01:04:44;3.20;99.90
49218;DHT22;35045;51.194;7.268;2023-03-16T01:07:13;3.20;99.90
49218;DHT22;35045;51.194;7.268;2023-03-16T01:09:40;3.20;99.90
49218;DHT22;35045;51.194;7.268;2023-03-16T01:12:09;3.20;99.90
49218;DHT22;35045;51.194;7.268;2023-03-16T01:14:36;3.20;99.90
49218;DHT22;35045;51.194;7.268;2023-03-16T01:17:04;3.20;99.90
49218;DHT22;35045;51.194;7.268;2023-03-16T01:19:31;3.30;99.90
49218;DHT22;35045;51.194;7.268;2023-03-16T01:22:10;3.30;99.90
49218;DHT22;35045;51.194;7.268;2023-03-16T01:24:37;3.40;99.90
49218;DHT22;35045;51.194;7.268;2023-03-16T01:27:04;3.40;99.90
49218;DHT22;35045;51.194;7.268;2023-03-16T01:29:30;3.30;99.90
49218;DHT22;35045;51.194;7.268;2023-03-16T01:31:57;3.20;99.90
49218;DHT22;35045;51.194;7.268;2023-03-16T01:34:23;3.20;99.90
49218;DHT22;35045;51.194;7.268;2023-03-16T01:36:49;3.20;99.90
49218;DHT22;35045;51.194;7.268;2023-03-16T01:39:16;3.10;99.90
49218;DHT22;35045;51.194;7.268;2023-03-16T01:41:43;3.10;99.90
49218;DHT22;35045;51.194;7.268;2023-03-16T01:44:19;3.20;99.90
49218;DHT22;35045;51.194;7.268;2023-03-16T01:46:47;3.10;99.90
49218;DHT22;35045;51.194;7.268;2023-03-16T01:49:21;3.10;99.90
49218;DHT22;35045;51.194;7.268;2023-03-16T01:55:13;3.10;99.90
49218;DHT22;35045;51.194;7.268;2023-03-16T01:57:37;3.10;99.90
49218;DHT22;35045;51.194;7.268;2023-03-16T02:00:11;3.10;99.90
49218;DHT22;35045;51.194;7.268;2023-03-16T02:02:47;3.10;99.90
49218;DHT22;35045;51.194;7.268;2023-03-16T02:05:35;3.10;99.90
49218;DHT22;35045;51.194;7.268;2023-03-16T02:08:04;3.10;99.90
49218;DHT22;35045;51.194;7.268;2023-03-16T02:10:31;3.10;99.90
49218;DHT22;35045;51.194;7.268;2023-03-16T02:12:58;3.10;99.90
49218;DHT22;35045;51.194;7.268;2023-03-16T02:15:24;3.20;99.90
49218;DHT22;35045;51.194;7.268;2023-03-16T02:17:52;3.10;99.90
49218;DHT22;35045;51.194;7.268;2023-03-16T02:22:53;3.10;99.90
49218;DHT22;35045;51.194;7.268;2023-03-16T02:25:25;3.10;99.90
49218;DHT22;35045;51.194;7.268;2023-03-16T02:28:28;3.10;99.90
49218;DHT22;35045;51.194;7.268;2023-03-16T02:30:57;3.20;99.90
49218;DHT22;35045;51.194;7.268;2023-03-16T02:33:24;3.20;99.90
49218;DHT22;35045;51.194;7.268;2023-03-16T02:35:50;3.10;99.90
49218;DHT22;35045;51.194;7.268;2023-03-16T02:38:17;3.10;99.90
49218;DHT22;35045;51.194;7.268;2023-03-16T02:40:45;3.10;99.90
49218;DHT22;35045;51.194;7.268;2023-03-16T02:43:23;3.10;99.90
49218;DHT22;35045;51.194;7.268;2023-03-16T02:45:59;3.10;99.90
49218;DHT22;35045;51.194;7.268;2023-03-16T02:49:14;3.10;99.90
49218;DHT22;35045;51.194;7.268;2023-03-16T02:51:20;3.00;99.90
49218;DHT22;35045;51.194;7.268;2023-03-16T02:53:46;3.00;99.90
49218;DHT22;35045;51.194;7.268;2023-03-16T02:56:13;3.10;99.90
49218;DHT22;35045;51.194;7.268;2023-03-16T02:58:39;3.00;99.90
49218;DHT22;35045;51.194;7.268;2023-03-16T03:01:05;3.10;99.90
49218;DHT22;35045;51.194;7.268;2023-03-16T03:03:31;3.00;99.90
49218;DHT22;35045;51.194;7.268;2023-03-16T03:05:59;3.10;99.90
49218;DHT22;35045;51.194;7.268;2023-03-16T03:08:26;3.00;99.90
49218;DHT22;35045;51.194;7.268;2023-03-16T03:10:52;3.00;99.90
49218;DHT22;35045;51.194;7.268;2023-03-16T03:13:18;3.00;99.90
49218;DHT22;35045;51.194;7.268;2023-03-16T03:15:44;3.10;99.90
49218;DHT22;35045;51.194;7.268;2023-03-16T03:18:10;3.10;99.90
49218;DHT22;35045;51.194;7.268;2023-03-16T03:20:37;3.00;99.90
49218;DHT22;35045;51.194;7.268;2023-03-16T03:23:03;3.00;99.90
49218;DHT22;35045;51.194;7.268;2023-03-16T03:25:30;3.00;99.90
49218;DHT22;35045;51.194;7.268;2023-03-16T03:28:00;3.10;99.90
49218;DHT22;35045;51.194;7.268;2023-03-16T03:30:27;3.10;99.90
49218;DHT22;35045;51.194;7.268;2023-03-16T03:32:53;3.20;99.90
49218;DHT22;35045;51.194;7.268;2023-03-16T03:35:20;3.10;99.90
49218;DHT22;35045;51.194;7.268;2023-03-16T03:37:46;3.20;99.90
49218;DHT22;35045;51.194;7.268;2023-03-16T03:40:14;3.10;99.90
49218;DHT22;35045;51.194;7.268;2023-03-16T03:42:41;3.20;99.90
49218;DHT22;35045;51.194;7.268;2023-03-16T03:45:09;3.10;99.90
49218;DHT22;35045;51.194;7.268;2023-03-16T03:47:38;3.10;99.90
49218;DHT22;35045;51.194;7.268;2023-03-16T03:50:06;3.00;99.90
49218;DHT22;35045;51.194;7.268;2023-03-16T03:52:32;3.10;99.90
49218;DHT22;35045;51.194;7.268;2023-03-16T03:54:59;3.10;99.90
49218;DHT22;35045;51.194;7.268;2023-03-16T03:57:25;3.10;99.90
49218;DHT22;35045;51.194;7.268;2023-03-16T03:59:51;3.20;99.90
49218;DHT22;35045;51.194;7.268;2023-03-16T04:05:57;3.30;99.90
49218;DHT22;35045;51.194;7.268;2023-03-16T04:08:23;3.20;99.90
49218;DHT22;35045;51.194;7.268;2023-03-16T04:10:49;3.10;99.90
49218;DHT22;35045;51.194;7.268;2023-03-16T04:13:16;3.20;99.90
49218;DHT22;35045;51.194;7.268;2023-03-16T04:15:42;3.10;99.90
49218;DHT22;35045;51.194;7.268;2023-03-16T04:18:11;3.10;99.90
49218;DHT22;35045;51.194;7.268;2023-03-16T04:20:37;3.10;99.90
49218;DHT22;35045;51.194;7.268;2023-03-16T04:23:04;3.10;99.90
49218;DHT22;35045;51.194;7.268;2023-03-16T04:25:30;3.10;99.90
49218;DHT22;35045;51.194;7.268;2023-03-16T04:27:56;3.10;99.90
49218;DHT22;35045;51.194;7.268;2023-03-16T04:30:22;3.10;99.90
49218;DHT22;35045;51.194;7.268;2023-03-16T04:32:48;3.10;99.90
49218;DHT22;35045;51.194;7.268;2023-03-16T04:35:15;3.10;99.90
49218;DHT22;35045;51.194;7.268;2023-03-16T04:37:42;3.00;99.90
49218;DHT22;35045;51.194;7.268;2023-03-16T04:40:09;3.00;99.90
49218;DHT22;35045;51.194;7.268;2023-03-16T04:42:43;3.00;99.90
49218;DHT22;35045;51.194;7.268;2023-03-16T04:45:09;3.00;99.90
49218;DHT22;35045;51.194;7.268;2023-03-16T04:47:36;3.00;99.90
49218;DHT22;35045;51.194;7.268;2023-03-16T04:50:03;3.10;99.90
49218;DHT22;35045;51.194;7.268;2023-03-16T04:52:31;3.10;99.90
49218;DHT22;35045;51.194;7.268;2023-03-16T04:54:57;3.10;99.90
49218;DHT22;35045;51.194;7.268;2023-03-16T04:57:23;3.10;99.90
49218;DHT22;35045;51.194;7.268;2023-03-16T04:59:49;3.00;99.90
49218;DHT22;35045;51.194;7.268;2023-03-16T05:02:16;3.00;99.90
49218;DHT22;35045;51.194;7.268;2023-03-16T05:04:44;3.00;99.90
49218;DHT22;35045;51.194;7.268;2023-03-16T05:07:10;3.00;99.90
49218;DHT22;35045;51.194;7.268;2023-03-16T05:09:36;3.00;99.90
49218;DHT22;35045;51.194;7.268;2023-03-16T05:12:03;3.00;99.90
49218;DHT22;35045;51.194;7.268;2023-03-16T05:14:29;3.10;99.90
49218;DHT22;35045;51.194;7.268;2023-03-16T05:16:55;3.10;99.90
49218;DHT22;35045;51.194;7.268;2023-03-16T05:19:21;3.10;99.90
49218;DHT22;35045;51.194;7.268;2023-03-16T05:21:47;3.10;99.90
49218;DHT22;35045;51.194;7.268;2023-03-16T05:24:14;3.10;99.90
49218;DHT22;35045;51.194;7.268;2023-03-16T05:26:40;3.20;99.90
49218;DHT22;35045;51.194;7.268;2023-03-16T05:29:06;3.20;99.90
49218;DHT22;35045;51.194;7.268;2023-03-16T05:31:32;3.10;99.90
49218;DHT22;35045;51.194;7.268;2023-03-16T05:33:59;3.20;99.90
49218;DHT22;35045;51.194;7.268;2023-03-16T05:36:25;3.30;99.90
49218;DHT22;35045;51.194;7.268;2023-03-16T05:38:51;3.30;99.90
49218;DHT22;35045;51.194;7.268;2023-03-16T05:41:17;3.30;99.90
49218;DHT22;35045;51.194;7.268;2023-03-16T05:43:46;3.40;99.90
49218;DHT22;35045;51.194;7.268;2023-03-16T05:46:12;3.30;99.90
49218;DHT22;35045;51.194;7.268;2023-03-16T05:48:39;3.30;99.90
49218;DHT22;35045;51.194;7.268;2023-03-16T05:51:05;3.30;99.90
49218;DHT22;35045;51.194;7.268;2023-03-16T05:53:32;3.30;99.90
49218;DHT22;35045;51.194;7.268;2023-03-16T05:55:58;3.40;99.90
49218;DHT22;35045;51.194;7.268;2023-03-16T05:58:24;3.40;99.90
49218;DHT22;35045;51.194;7.268;2023-03-16T06:00:50;3.50;99.90
49218;DHT22;35045;51.194;7.268;2023-03-16T06:03:16;3.50;99.90
49218;DHT22;35045;51.194;7.268;2023-03-16T06:05:43;3.50;99.90
49218;DHT22;35045;51.194;7.268;2023-03-16T06:08:09;3.50;99.90
49218;DHT22;35045;51.194;7.268;2023-03-16T06:10:35;3.50;99.90
49218;DHT22;35045;51.194;7.268;2023-03-16T06:13:01;3.40;99.90
49218;DHT22;35045;51.194;7.268;2023-03-16T06:15:27;3.40;99.90
49218;DHT22;35045;51.194;7.268;2023-03-16T06:17:55;3.40;99.90
49218;DHT22;35045;51.194;7.268;2023-03-16T06:20:21;3.50;99.90
49218;DHT22;35045;51.194;7.268;2023-03-16T06:22:47;3.50;99.90
49218;DHT22;35045;51.194;7.268;2023-03-16T06:25:14;3.40;99.90
49218;DHT22;35045;51.194;7.268;2023-03-16T06:27:41;3.50;99.90
49218;DHT22;35045;51.194;7.268;2023-03-16T06:30:10;3.50;99.90
49218;DHT22;35045;51.194;7.268;2023-03-16T06:32:37;3.60;99.90
49218;DHT22;35045;51.194;7.268;2023-03-16T06:35:04;3.60;99.90
49218;DHT22;35045;51.194;7.268;2023-03-16T06:37:30;3.60;99.90
49218;DHT22;35045;51.194;7.268;2023-03-16T06:39:57;3.70;99.90
49218;DHT22;35045;51.194;7.268;2023-03-16T06:42:23;3.70;99.90
49218;DHT22;35045;51.194;7.268;2023-03-16T06:44:49;3.70;99.90
49218;DHT22;35045;51.194;7.268;2023-03-16T06:47:16;3.80;99.90
49218;DHT22;35045;51.194;7.268;2023-03-16T06:49:42;3.90;99.90
49218;DHT22;35045;51.194;7.268;2023-03-16T06:52:08;3.90;99.90
49218;DHT22;35045;51.194;7.268;2023-03-16T06:54:35;3.90;99.90
49218;DHT22;35045;51.194;7.268;2023-03-16T06:57:02;4.00;99.90
49218;DHT22;35045;51.194;7.268;2023-03-16T06:59:29;4.00;99.90
49218;DHT22;35045;51.194;7.268;2023-03-16T07:01:55;4.00;99.90
49218;DHT22;35045;51.194;7.268;2023-03-16T07:04:21;4.00;99.90
49218;DHT22;35045;51.194;7.268;2023-03-16T07:06:47;4.00;99.90
49218;DHT22;35045;51.194;7.268;2023-03-16T07:09:13;3.90;99.90
49218;DHT22;35045;51.194;7.268;2023-03-16T07:11:39;4.00;99.90
49218;DHT22;35045;51.194;7.268;2023-03-16T07:14:06;4.20;99.90
49218;DHT22;35045;51.194;7.268;2023-03-16T07:16:32;4.20;99.90
49218;DHT22;35045;51.194;7.268;2023-03-16T07:18:58;4.30;99.90
49218;DHT22;35045;51.194;7.268;2023-03-16T07:21:25;4.30;99.90
49218;DHT22;35045;51.194;7.268;2023-03-16T07:23:51;4.40;99.90
49218;DHT22;35045;51.194;7.268;2023-03-16T07:26:17;4.40;99.90
49218;DHT22;35045;51.194;7.268;2023-03-16T07:28:43;4.30;99.90
49218;DHT22;35045;51.194;7.268;2023-03-16T07:31:09;4.40;99.90
49218;DHT22;35045;51.194;7.268;2023-03-16T07:33:36;4.40;99.90
49218;DHT22;35045;51.194;7.268;2023-03-16T07:36:02;4.50;99.90
49218;DHT22;35045;51.194;7.268;2023-03-16T07:38:30;4.60;99.90
49218;DHT22;35045;51.194;7.268;2023-03-16T07:40:58;4.60;99.90
49218;DHT22;35045;51.194;7.268;2023-03-16T07:43:24;4.70;99.90
49218;DHT22;35045;51.194;7.268;2023-03-16T07:45:51;4.80;99.90
49218;DHT22;35045;51.194;7.268;2023-03-16T07:48:18;4.90;99.90
49218;DHT22;35045;51.194;7.268;2023-03-16T07:50:46;4.90;99.90
49218;DHT22;35045;51.194;7.268;2023-03-16T07:53:13;4.90;99.90
49218;DHT22;35045;51.194;7.268;2023-03-16T07:55:41;4.90;99.90
49218;DHT22;35045;51.194;7.268;2023-03-16T07:58:08;5.00;99.90
49218;DHT22;35045;51.194;7.268;2023-03-16T08:00:36;5.00;99.90
49218;DHT22;35045;51.194;7.268;2023-03-16T08:03:02;5.10;99.90
49218;DHT22;35045;51.194;7.268;2023-03-16T08:05:30;5.10;99.90
49218;DHT22;35045;51.194;7.268;2023-03-16T08:08:00;5.20;99.90
49218;DHT22;35045;51.194;7.268;2023-03-16T08:10:27;5.10;99.90
49218;DHT22;35045;51.194;7.268;2023-03-16T08:12:54;5.20;99.90
49218;DHT22;35045;51.194;7.268;2023-03-16T08:15:20;5.10;99.90
49218;DHT22;35045;51.194;7.268;2023-03-16T08:17:46;5.20;99.90
49218;DHT22;35045;51.194;7.268;2023-03-16T08:20:13;5.20;99.90
49218;DHT22;35045;51.194;7.268;2023-03-16T08:22:41;5.20;99.90
49218;DHT22;35045;51.194;7.268;2023-03-16T08:25:11;5.20;99.90
49218;DHT22;35045;51.194;7.268;2023-03-16T08:27:38;5.20;99.90
49218;DHT22;35045;51.194;7.268;2023-03-16T08:30:06;5.30;99.90
49218;DHT22;35045;51.194;7.268;2023-03-16T08:32:36;5.30;99.90
49218;DHT22;35045;51.194;7.268;2023-03-16T08:35:08;5.50;99.90
49218;DHT22;35045;51.194;7.268;2023-03-16T08:37:35;5.50;99.90
49218;DHT22;35045;51.194;7.268;2023-03-16T08:40:02;5.50;99.90
49218;DHT22;35045;51.194;7.268;2023-03-16T08:42:30;5.50;99.90
49218;DHT22;35045;51.194;7.268;2023-03-16T08:44:57;5.50;99.90
49218;DHT22;35045;51.194;7.268;2023-03-16T08:47:25;5.50;99.90
49218;DHT22;35045;51.194;7.268;2023-03-16T08:49:51;5.50;99.90
49218;DHT22;35045;51.194;7.268;2023-03-16T08:52:18;5.60;99.90
49218;DHT22;35045;51.194;7.268;2023-03-16T08:54:44;5.50;99.90
49218;DHT22;35045;51.194;7.268;2023-03-16T08:57:26;5.60;99.90
49218;DHT22;35045;51.194;7.268;2023-03-16T08:59:52;5.40;99.90
49218;DHT22;35045;51.194;7.268;2023-03-16T09:02:18;5.40;99.90
49218;DHT22;35045;51.194;7.268;2023-03-16T09:04:45;5.40;99.90
49218;DHT22;35045;51.194;7.268;2023-03-16T09:07:12;5.30;99.90
49218;DHT22;35045;51.194;7.268;2023-03-16T09:09:38;5.40;99.90
49218;DHT22;35045;51.194;7.268;2023-03-16T09:12:05;5.50;99.90
49218;DHT22;35045;51.194;7.268;2023-03-16T09:14:32;5.60;99.90
49218;DHT22;35045;51.194;7.268;2023-03-16T09:16:58;5.70;99.90
49218;DHT22;35045;51.194;7.268;2023-03-16T09:19:24;5.80;99.90
49218;DHT22;35045;51.194;7.268;2023-03-16T09:21:50;5.90;99.90
49218;DHT22;35045;51.194;7.268;2023-03-16T09:24:21;5.90;99.90
49218;DHT22;35045;51.194;7.268;2023-03-16T09:26:47;5.90;99.90
49218;DHT22;35045;51.194;7.268;2023-03-16T09:29:14;5.90;99.90
49218;DHT22;35045;51.194;7.268;2023-03-16T09:31:40;6.00;99.90
49218;DHT22;35045;51.194;7.268;2023-03-16T09:34:06;6.00;99.90
49218;DHT22;35045;51.194;7.268;2023-03-16T09:36:32;6.20;99.90
49218;DHT22;35045;51.194;7.268;2023-03-16T09:38:59;6.20;99.90
49218;DHT22;35045;51.194;7.268;2023-03-16T09:41:45;6.30;99.90
49218;DHT22;35045;51.194;7.268;2023-03-16T09:44:25;6.30;99.90
49218;DHT22;35045;51.194;7.268;2023-03-16T09:46:55;6.40;99.90
49218;DHT22;35045;51.194;7.268;2023-03-16T09:49:27;6.40;99.90
49218;DHT22;35045;51.194;7.268;2023-03-16T09:57:33;6.90;99.90
49218;DHT22;35045;51.194;7.268;2023-03-16T10:00:14;7.10;99.90
49218;DHT22;35045;51.194;7.268;2023-03-16T10:03:02;7.20;99.90
49218;DHT22;35045;51.194;7.268;2023-03-16T10:05:30;7.40;99.90
49218;DHT22;35045;51.194;7.268;2023-03-16T10:08:07;7.50;99.90
49218;DHT22;35045;51.194;7.268;2023-03-16T10:11:06;7.60;99.90
49218;DHT22;35045;51.194;7.268;2023-03-16T10:16:39;7.70;99.90
49218;DHT22;35045;51.194;7.268;2023-03-16T10:19:17;7.70;99.90
49218;DHT22;35045;51.194;7.268;2023-03-16T10:21:46;7.80;99.90
49218;DHT22;35045;51.194;7.268;2023-03-16T10:27:17;8.00;99.90
49218;DHT22;35045;51.194;7.268;2023-03-16T10:29:46;8.10;99.90
49218;DHT22;35045;51.194;7.268;2023-03-16T10:32:15;8.10;99.90
49218;DHT22;35045;51.194;7.268;2023-03-16T10:34:56;8.10;99.90
49218;DHT22;35045;51.194;7.268;2023-03-16T10:37:23;8.10;99.90
49218;DHT22;35045;51.194;7.268;2023-03-16T10:39:51;8.20;99.90
49218;DHT22;35045;51.194;7.268;2023-03-16T10:42:19;8.20;99.90
49218;DHT22;35045;51.194;7.268;2023-03-16T10:44:46;8.10;99.90
49218;DHT22;35045;51.194;7.268;2023-03-16T10:47:22;8.10;99.90
49218;DHT22;35045;51.194;7.268;2023-03-16T10:49:49;8.20;99.90
49218;DHT22;35045;51.194;7.268;2023-03-16T10:54:55;8.20;99.90
49218;DHT22;35045;51.194;7.268;2023-03-16T10:57:33;8.20;99.90
49218;DHT22;35045;51.194;7.268;2023-03-16T11:02:48;8.20;99.90
49218;DHT22;35045;51.194;7.268;2023-03-16T11:05:26;8.30;99.90
49218;DHT22;35045;51.194;7.268;2023-03-16T11:12:53;8.60;99.90
49218;DHT22;35045;51.194;7.268;2023-03-16T11:15:21;8.70;99.90
49218;DHT22;35045;51.194;7.268;2023-03-16T11:17:51;8.70;99.90
49218;DHT22;35045;51.194;7.268;2023-03-16T11:20:24;8.80;99.70
49218;DHT22;35045;51.194;7.268;2023-03-16T11:22:51;9.00;99.60
49218;DHT22;35045;51.194;7.268;2023-03-16T11:25:27;9.10;99.60
49218;DHT22;35045;51.194;7.268;2023-03-16T11:30:47;9.30;98.90
49218;DHT22;35045;51.194;7.268;2023-03-16T11:33:16;9.40;98.70
49218;DHT22;35045;51.194;7.268;2023-03-16T11:36:16;9.50;99.00
49218;DHT22;35045;51.194;7.268;2023-03-16T11:39:06;9.70;99.10
49218;DHT22;35045;51.194;7.268;2023-03-16T11:44:35;10.10;98.80
49218;DHT22;35045;51.194;7.268;2023-03-16T11:47:07;10.10;98.40
49218;DHT22;35045;51.194;7.268;2023-03-16T11:49:56;10.40;98.90
49218;DHT22;35045;51.194;7.268;2023-03-16T11:55:28;10.60;97.60
49218;DHT22;35045;51.194;7.268;2023-03-16T12:01:31;10.60;96.80
49218;DHT22;35045;51.194;7.268;2023-03-16T12:13:01;10.90;96.80
49218;DHT22;35045;51.194;7.268;2023-03-16T12:15:34;11.20;95.70
49218;DHT22;35045;51.194;7.268;2023-03-16T12:21:10;11.50;95.60
49218;DHT22;35045;51.194;7.268;2023-03-16T12:23:42;11.40;95.40
49218;DHT22;35045;51.194;7.268;2023-03-16T12:26:10;11.50;95.90
49218;DHT22;35045;51.194;7.268;2023-03-16T12:28:38;11.60;95.40
49218;DHT22;35045;51.194;7.268;2023-03-16T12:31:07;11.50;94.90
49218;DHT22;35045;51.194;7.268;2023-03-16T12:33:44;11.50;95.10
49218;DHT22;35045;51.194;7.268;2023-03-16T12:36:34;11.60;95.10
49218;DHT22;35045;51.194;7.268;2023-03-16T12:39:10;11.50;95.10
49218;DHT22;35045;51.194;7.268;2023-03-16T12:41:51;11.40;95.00
49218;DHT22;35045;51.194;7.268;2023-03-16T12:47:03;11.10;95.20
49218;DHT22;35045;51.194;7.268;2023-03-16T12:49:34;11.00;95.60
49218;DHT22;35045;51.194;7.268;2023-03-16T12:52:09;10.80;95.40
49218;DHT22;35045;51.194;7.268;2023-03-16T12:54:49;10.90;95.50
49218;DHT22;35045;51.194;7.268;2023-03-16T12:57:17;10.90;95.60
49218;DHT22;35045;51.194;7.268;2023-03-16T12:59:46;10.80;96.10
49218;DHT22;35045;51.194;7.268;2023-03-16T13:02:35;10.80;95.90
49218;DHT22;35045;51.194;7.268;2023-03-16T13:05:11;10.80;96.30
49218;DHT22;35045;51.194;7.268;2023-03-16T13:07:44;10.90;96.20
49218;DHT22;35045;51.194;7.268;2023-03-16T13:10:13;10.80;95.60
49218;DHT22;35045;51.194;7.268;2023-03-16T13:12:41;10.60;96.10
49218;DHT22;35045;51.194;7.268;2023-03-16T13:17:46;10.70;96.10
49218;DHT22;35045;51.194;7.268;2023-03-16T13:25:41;10.80;96.40
49218;DHT22;35045;51.194;7.268;2023-03-16T13:28:13;11.00;96.70
49218;DHT22;35045;51.194;7.268;2023-03-16T13:30:46;11.00;95.90
49218;DHT22;35045;51.194;7.268;2023-03-16T13:33:22;11.00;96.20
49218;DHT22;35045;51.194;7.268;2023-03-16T13:35:51;11.20;96.50
49218;DHT22;35045;51.194;7.268;2023-03-16T13:38:20;11.20;96.10
49218;DHT22;35045;51.194;7.268;2023-03-16T13:40:51;11.40;96.30
49218;DHT22;35045;51.194;7.268;2023-03-16T13:43:22;11.70;95.60
49218;DHT22;35045;51.194;7.268;2023-03-16T13:45:48;11.90;95.20
49218;DHT22;35045;51.194;7.268;2023-03-16T13:48:15;12.30;95.00
49218;DHT22;35045;51.194;7.268;2023-03-16T13:50:44;12.60;94.90
49218;DHT22;35045;51.194;7.268;2023-03-16T13:53:15;13.10;94.50
49218;DHT22;35045;51.194;7.268;2023-03-16T13:55:45;13.30;93.90
49218;DHT22;35045;51.194;7.268;2023-03-16T13:58:43;13.40;93.40
49218;DHT22;35045;51.194;7.268;2023-03-16T14:01:24;13.30;93.10
49218;DHT22;35045;51.194;7.268;2023-03-16T14:03:52;13.40;93.60
49218;DHT22;35045;51.194;7.268;2023-03-16T14:06:25;13.40;93.80
49218;DHT22;35045;51.194;7.268;2023-03-16T14:08:55;13.50;93.80
49218;DHT22;35045;51.194;7.268;2023-03-16T14:11:25;13.40;93.60
49218;DHT22;35045;51.194;7.268;2023-03-16T14:13:53;13.30;93.30
49218;DHT22;35045;51.194;7.268;2023-03-16T14:16:23;13.30;93.10
49218;DHT22;35045;51.194;7.268;2023-03-16T14:19:01;13.60;93.40
49218;DHT22;35045;51.194;7.268;2023-03-16T14:21:30;13.80;92.80
49218;DHT22;35045;51.194;7.268;2023-03-16T14:24:03;13.90;92.70
49218;DHT22;35045;51.194;7.268;2023-03-16T14:26:42;14.20;92.30
49218;DHT22;35045;51.194;7.268;2023-03-16T14:29:22;14.40;91.90
49218;DHT22;35045;51.194;7.268;2023-03-16T14:31:49;14.60;91.90
49218;DHT22;35045;51.194;7.268;2023-03-16T14:34:25;14.50;91.70
49218;DHT22;35045;51.194;7.268;2023-03-16T14:36:52;14.20;91.50
49218;DHT22;35045;51.194;7.268;2023-03-16T14:39:20;14.30;91.50
49218;DHT22;35045;51.194;7.268;2023-03-16T14:41:50;14.40;91.60
49218;DHT22;35045;51.194;7.268;2023-03-16T14:44:28;14.60;91.50
49218;DHT22;35045;51.194;7.268;2023-03-16T14:47:00;14.50;91.20
49218;DHT22;35045;51.194;7.268;2023-03-16T14:49:37;14.30;91.20
49218;DHT22;35045;51.194;7.268;2023-03-16T14:54:47;14.10;90.40
49218;DHT22;35045;51.194;7.268;2023-03-16T14:57:17;14.10;90.60
49218;DHT22;35045;51.194;7.268;2023-03-16T14:59:44;14.20;90.50
49218;DHT22;35045;51.194;7.268;2023-03-16T15:02:20;14.30;90.80
49218;DHT22;35045;51.194;7.268;2023-03-16T15:04:47;14.30;90.40
49218;DHT22;35045;51.194;7.268;2023-03-16T15:09:51;14.00;90.40
49218;DHT22;35045;51.194;7.268;2023-03-16T15:12:19;14.00;91.00
49218;DHT22;35045;51.194;7.268;2023-03-16T15:14:47;14.20;90.90
49218;DHT22;35045;51.194;7.268;2023-03-16T15:17:32;14.20;90.60
49218;DHT22;35045;51.194;7.268;2023-03-16T15:19:58;14.00;90.80
49218;DHT22;35045;51.194;7.268;2023-03-16T15:22:32;14.00;90.70
49218;DHT22;35045;51.194;7.268;2023-03-16T15:25:10;14.00;90.50
49218;DHT22;35045;51.194;7.268;2023-03-16T15:27:42;13.70;90.70
49218;DHT22;35045;51.194;7.268;2023-03-16T15:30:19;13.70;91.20
49218;DHT22;35045;51.194;7.268;2023-03-16T15:32:47;13.70;91.40
49218;DHT22;35045;51.194;7.268;2023-03-16T15:35:13;14.00;91.10
49218;DHT22;35045;51.194;7.268;2023-03-16T15:37:39;14.40;91.00
49218;DHT22;35045;51.194;7.268;2023-03-16T15:40:18;14.60;90.90
49218;DHT22;35045;51.194;7.268;2023-03-16T15:42:45;14.60;90.60
49218;DHT22;35045;51.194;7.268;2023-03-16T15:45:14;14.50;90.10
49218;DHT22;35045;51.194;7.268;2023-03-16T15:47:42;14.40;90.10
49218;DHT22;35045;51.194;7.268;2023-03-16T15:50:10;14.00;90.00
49218;DHT22;35045;51.194;7.268;2023-03-16T15:52:38;13.70;90.20
49218;DHT22;35045;51.194;7.268;2023-03-16T15:55:20;13.60;91.00
49218;DHT22;35045;51.194;7.268;2023-03-16T15:57:50;13.30;91.00
49218;DHT22;35045;51.194;7.268;2023-03-16T16:02:51;13.00;91.40
49218;DHT22;35045;51.194;7.268;2023-03-16T16:05:18;12.80;91.10
49218;DHT22;35045;51.194;7.268;2023-03-16T16:07:44;12.50;91.40
49218;DHT22;35045;51.194;7.268;2023-03-16T16:10:13;12.30;92.10
49218;DHT22;35045;51.194;7.268;2023-03-16T16:12:40;12.10;91.40
49218;DHT22;35045;51.194;7.268;2023-03-16T16:15:27;11.90;91.60
49218;DHT22;35045;51.194;7.268;2023-03-16T16:17:55;12.00;91.80
49218;DHT22;35045;51.194;7.268;2023-03-16T16:20:42;11.90;91.60
49218;DHT22;35045;51.194;7.268;2023-03-16T16:23:09;11.70;91.90
49218;DHT22;35045;51.194;7.268;2023-03-16T16:25:37;11.70;92.00
49218;DHT22;35045;51.194;7.268;2023-03-16T16:28:14;11.60;92.00
49218;DHT22;35045;51.194;7.268;2023-03-16T16:30:42;11.40;92.20
49218;DHT22;35045;51.194;7.268;2023-03-16T16:35:53;11.10;92.50
49218;DHT22;35045;51.194;7.268;2023-03-16T16:38:20;11.10;92.60
49218;DHT22;35045;51.194;7.268;2023-03-16T16:40:47;11.00;92.70
49218;DHT22;35045;51.194;7.268;2023-03-16T16:43:28;10.80;93.10
49218;DHT22;35045;51.194;7.268;2023-03-16T16:45:55;10.80;93.20
49218;DHT22;35045;51.194;7.268;2023-03-16T16:48:30;10.70;93.40
49218;DHT22;35045;51.194;7.268;2023-03-16T16:50:59;10.60;93.60
49218;DHT22;35045;51.194;7.268;2023-03-16T16:53:26;10.60;93.70
49218;DHT22;35045;51.194;7.268;2023-03-16T16:55:53;10.50;93.70
49218;DHT22;35045;51.194;7.268;2023-03-16T16:58:21;10.50;93.90
49218;DHT22;35045;51.194;7.268;2023-03-16T17:00:55;10.40;94.20
49218;DHT22;35045;51.194;7.268;2023-03-16T17:03:25;10.30;94.20
49218;DHT22;35045;51.194;7.268;2023-03-16T17:05:53;10.20;94.30
49218;DHT22;35045;51.194;7.268;2023-03-16T17:08:19;10.20;94.40
49218;DHT22;35045;51.194;7.268;2023-03-16T17:10:46;10.00;94.60
49218;DHT22;35045;51.194;7.268;2023-03-16T17:13:28;9.90;94.90